createdAt,value
2023-05-19T00:01:43.940Z,99591.22
2023-05-19T00:04:11.724Z,99599.84
2023-05-19T00:06:39.090Z,99591.03
2023-05-19T00:09:10.482Z,99582.81
2023-05-19T00:11:39.642Z,99560.97
2023-05-19T00:14:08.990Z,99581.75
2023-05-19T00:16:37.022Z,99576.41
2023-05-19T00:19:06.052Z,99579.81
2023-05-19T00:21:33.080Z,99582.72
2023-05-19T00:23:59.970Z,99587.72
2023-05-19T00:26:27.644Z,99586.34
2023-05-19T00:28:59.961Z,99587.41
2023-05-19T00:31:26.986Z,99600.06
2023-05-19T00:33:55.256Z,99589.13
2023-05-19T00:36:22.255Z,99604.00
2023-05-19T00:38:49.589Z,99591.97
2023-05-19T00:41:16.718Z,99589.84
2023-05-19T00:43:43.768Z,99600.72
2023-05-19T00:46:10.895Z,99583.78
2023-05-19T00:48:37.869Z,99615.53
2023-05-19T00:51:05.712Z,99603.91
2023-05-19T00:53:34.286Z,99600.25
2023-05-19T00:56:03.093Z,99611.66
2023-05-19T00:58:31.690Z,99600.25
2023-05-19T01:01:00.292Z,99596.97
2023-05-19T01:03:27.395Z,99601.13
2023-05-19T01:05:54.503Z,99602.81
2023-05-19T01:08:21.589Z,99606.22
2023-05-19T01:10:48.650Z,99609.75
2023-05-19T01:13:17.048Z,99616.84
2023-05-19T01:16:06.159Z,99618.56
2023-05-19T01:19:00.139Z,99612.41
2023-05-19T01:21:48.633Z,99604.19
2023-05-19T01:24:57.354Z,99632.22
2023-05-19T01:28:12.405Z,99598.97
2023-05-19T01:30:41.618Z,99597.81
2023-05-19T01:33:14.820Z,99605.47
2023-05-19T01:35:43.629Z,99621.13
2023-05-19T01:38:12.137Z,99617.34
2023-05-19T01:40:41.644Z,99613.41
2023-05-19T01:43:13.672Z,99617.97
2023-05-19T01:45:41.067Z,99611.56
2023-05-19T01:48:10.807Z,99612.22
2023-05-19T01:50:39.779Z,99628.00
2023-05-19T01:53:06.823Z,99597.09
2023-05-19T01:55:42.317Z,99598.91
2023-05-19T01:58:36.706Z,99613.41
2023-05-19T02:01:15.970Z,99602.31
2023-05-19T02:04:19.513Z,99613.28
2023-05-19T02:06:55.363Z,99627.16
2023-05-19T02:09:32.846Z,99609.47
2023-05-19T02:12:24.301Z,99603.47
2023-05-19T02:15:05.814Z,99632.38
2023-05-19T02:17:38.157Z,99623.34
2023-05-19T02:20:06.487Z,99606.78
2023-05-19T02:22:33.364Z,99606.28
2023-05-19T02:25:00.474Z,99629.50
2023-05-19T02:27:27.718Z,99629.06
2023-05-19T02:29:54.734Z,99635.50
2023-05-19T02:32:21.658Z,99634.50
2023-05-19T02:34:49.077Z,99612.88
2023-05-19T02:37:16.613Z,99628.72
2023-05-19T02:39:43.919Z,99644.50
2023-05-19T02:42:11.326Z,99652.41
2023-05-19T02:44:38.413Z,99629.50
2023-05-19T02:47:05.335Z,99600.78
2023-05-19T02:49:32.953Z,99618.38
2023-05-19T02:52:00.781Z,99597.22
2023-05-19T02:54:27.786Z,99622.38
2023-05-19T02:56:54.726Z,99606.34
2023-05-19T02:59:21.935Z,99610.69
2023-05-19T03:01:49.518Z,99613.47
2023-05-19T03:04:16.693Z,99585.66
2023-05-19T03:06:43.677Z,99611.72
2023-05-19T03:09:10.659Z,99609.38
2023-05-19T03:11:37.556Z,99613.47
2023-05-19T03:14:04.580Z,99596.72
2023-05-19T03:16:31.616Z,99609.97
2023-05-19T03:18:58.785Z,99607.16
2023-05-19T03:21:25.861Z,99613.66
2023-05-19T03:23:53.433Z,99604.06
2023-05-19T03:26:20.742Z,99592.59
2023-05-19T03:28:47.673Z,99577.06
2023-05-19T03:31:14.672Z,99559.91
2023-05-19T03:33:42.007Z,99601.63
2023-05-19T03:36:09.165Z,99592.75
2023-05-19T03:38:38.904Z,99560.47
2023-05-19T03:41:05.991Z,99583.50
2023-05-19T03:43:32.951Z,99582.53
2023-05-19T03:46:03.441Z,99594.88
2023-05-19T03:48:48.951Z,99564.16
2023-05-19T03:51:18.557Z,99580.47
2023-05-19T03:53:47.251Z,99577.75
2023-05-19T03:56:14.679Z,99594.75
2023-05-19T03:58:41.611Z,99587.13
2023-05-19T04:01:08.532Z,99590.31
2023-05-19T04:03:36.003Z,99592.59
2023-05-19T04:06:03.708Z,99584.47
2023-05-19T04:08:32.035Z,99587.44
2023-05-19T04:10:59.132Z,99585.66
2023-05-19T04:13:26.186Z,99590.03
2023-05-19T04:15:53.381Z,99599.66
2023-05-19T04:18:20.493Z,99608.00
2023-05-19T04:20:47.573Z,99598.78
2023-05-19T04:23:14.540Z,99628.13
2023-05-19T04:25:41.814Z,99600.59
2023-05-19T04:28:08.864Z,99628.66
2023-05-19T04:30:35.828Z,99599.50
2023-05-19T04:33:02.927Z,99599.09
2023-05-19T04:35:30.291Z,99601.94
2023-05-19T04:37:59.342Z,99571.66
2023-05-19T04:40:29.743Z,99556.16
2023-05-19T04:42:57.382Z,99588.69
2023-05-19T04:45:25.298Z,99573.88
2023-05-19T04:47:54.630Z,99598.09
2023-05-19T04:50:21.544Z,99530.38
2023-05-19T04:52:48.691Z,99614.06
2023-05-19T04:55:15.727Z,99583.56
2023-05-19T04:57:42.817Z,99615.06
2023-05-19T05:00:10.804Z,99607.06
2023-05-19T05:02:46.034Z,99623.75
2023-05-19T05:05:13.808Z,99603.88
2023-05-19T05:07:41.024Z,99610.44
2023-05-19T05:10:08.889Z,99618.50
2023-05-19T05:12:36.221Z,99632.38
2023-05-19T05:15:03.976Z,99615.84
2023-05-19T05:17:31.328Z,99620.03
2023-05-19T05:19:58.756Z,99617.50
2023-05-19T05:22:26.044Z,99612.94
2023-05-19T05:24:54.075Z,99631.56
2023-05-19T05:27:21.098Z,99604.63
2023-05-19T05:29:48.167Z,99615.94
2023-05-19T05:32:15.846Z,99618.97
2023-05-19T05:34:43.774Z,99605.53
2023-05-19T05:37:13.822Z,99630.06
2023-05-19T05:39:42.524Z,99621.94
2023-05-19T05:42:10.974Z,99617.56
2023-05-19T05:44:39.532Z,99620.53
2023-05-19T05:47:07.931Z,99615.94
2023-05-19T05:49:36.059Z,99626.03
2023-05-19T05:52:06.388Z,99620.97
2023-05-19T05:54:40.572Z,99637.91
2023-05-19T05:57:09.060Z,99625.50
2023-05-19T05:59:35.976Z,99623.25
2023-05-19T06:02:03.474Z,99628.41
2023-05-19T06:04:31.492Z,99595.34
2023-05-19T06:06:58.663Z,99739.31
2023-05-19T06:09:26.365Z,99629.28
2023-05-19T06:11:53.413Z,99611.00
2023-05-19T06:14:20.770Z,99624.81
2023-05-19T06:17:10.485Z,99578.94
2023-05-19T06:19:37.810Z,99634.81
2023-05-19T06:22:04.837Z,99585.72
2023-05-19T06:24:31.933Z,99593.34
2023-05-19T06:26:58.905Z,99622.84
2023-05-19T06:29:25.940Z,99614.53
2023-05-19T06:31:58.165Z,99627.97
2023-05-19T06:34:25.426Z,99651.19
2023-05-19T06:36:52.481Z,99626.97
2023-05-19T06:39:20.695Z,99611.72
2023-05-19T06:41:47.659Z,99616.50
2023-05-19T06:44:34.613Z,99617.41
2023-05-19T06:47:01.617Z,99621.53
2023-05-19T06:49:28.544Z,99609.88
2023-05-19T06:51:56.042Z,99580.41
2023-05-19T06:54:22.996Z,99602.28
2023-05-19T06:56:50.018Z,99630.13
2023-05-19T06:59:17.012Z,99611.63
2023-05-19T07:01:45.316Z,99617.69
2023-05-19T07:04:12.555Z,99604.75
2023-05-19T07:06:40.758Z,99614.78
2023-05-19T07:09:09.286Z,99624.97
2023-05-19T07:11:37.903Z,99605.66
2023-05-19T07:14:05.419Z,99627.31
2023-05-19T07:16:32.665Z,99615.13
2023-05-19T07:18:59.787Z,99590.19
2023-05-19T07:21:26.879Z,99593.66
2023-05-19T07:23:53.788Z,99605.53
2023-05-19T07:26:20.807Z,99633.41
2023-05-19T07:28:47.799Z,99585.69
2023-05-19T07:31:14.892Z,99590.78
2023-05-19T07:33:41.933Z,99615.16
2023-05-19T07:36:08.948Z,99616.59
2023-05-19T07:38:36.016Z,99584.06
2023-05-19T07:41:03.955Z,99615.88
2023-05-19T07:43:30.926Z,99620.81
2023-05-19T07:45:58.079Z,99599.91
2023-05-19T07:48:25.083Z,99605.66
2023-05-19T07:50:52.992Z,99581.44
2023-05-19T07:53:20.716Z,99594.22
2023-05-19T07:55:47.691Z,99606.00
2023-05-19T07:58:15.539Z,99596.59
2023-05-19T08:00:42.647Z,99569.44
2023-05-19T08:03:10.370Z,99612.03
2023-05-19T08:05:38.183Z,99591.78
2023-05-19T08:08:23.882Z,99586.44
2023-05-19T08:10:51.654Z,99585.06
2023-05-19T08:13:18.642Z,99595.75
2023-05-19T08:15:45.744Z,99584.81
2023-05-19T08:18:12.782Z,99581.28
2023-05-19T08:20:40.256Z,99593.78
2023-05-19T08:23:07.209Z,99565.34
2023-05-19T08:25:34.252Z,99539.38
2023-05-19T08:28:01.283Z,99570.97
2023-05-19T08:30:28.359Z,99582.81
2023-05-19T08:32:55.523Z,99613.09
2023-05-19T08:35:22.611Z,99587.34
2023-05-19T08:37:49.544Z,99595.41
2023-05-19T08:40:18.036Z,99530.75
2023-05-19T08:42:46.020Z,99570.31
2023-05-19T08:45:13.852Z,99593.59
2023-05-19T08:47:46.501Z,99601.34
2023-05-19T08:50:20.114Z,99581.19
2023-05-19T08:52:53.057Z,99592.59
2023-05-19T08:55:23.455Z,99569.47
2023-05-19T08:57:51.150Z,99590.50
2023-05-19T09:00:19.419Z,99559.28
2023-05-19T09:02:59.798Z,99567.53
2023-05-19T09:05:28.801Z,99569.53
2023-05-19T09:07:55.793Z,99556.78
2023-05-19T09:10:23.109Z,99601.28
2023-05-19T09:12:50.240Z,99568.63
2023-05-19T09:15:18.097Z,99544.56
2023-05-19T09:17:47.887Z,99562.66
2023-05-19T09:20:17.336Z,99557.66
2023-05-19T09:22:45.104Z,99568.47
2023-05-19T09:25:19.476Z,99564.84
2023-05-19T09:27:47.412Z,99558.06
2023-05-19T09:30:15.585Z,99565.78
2023-05-19T09:32:43.826Z,99584.09
2023-05-19T09:35:12.401Z,99572.41
2023-05-19T09:37:40.841Z,99578.19
2023-05-19T09:40:12.475Z,99565.06
2023-05-19T09:42:42.101Z,99591.91
2023-05-19T09:45:09.419Z,99563.44
2023-05-19T09:47:38.081Z,99561.66
2023-05-19T09:50:09.834Z,99599.63
2023-05-19T09:52:39.999Z,99565.31
2023-05-19T09:55:10.928Z,99561.41
2023-05-19T09:57:39.039Z,99562.78
2023-05-19T10:00:11.531Z,99559.41
2023-05-19T10:02:42.219Z,99566.28
2023-05-19T10:05:12.959Z,99565.94
2023-05-19T10:07:41.080Z,99585.91
2023-05-19T10:10:13.406Z,99553.41
2023-05-19T10:12:41.162Z,99558.66
2023-05-19T10:15:10.503Z,99554.47
2023-05-19T10:17:42.860Z,99546.34
2023-05-19T10:20:17.349Z,99586.06
2023-05-19T10:22:46.614Z,99584.03
2023-05-19T10:25:14.099Z,99570.09
2023-05-19T10:27:44.568Z,99589.34
2023-05-19T10:30:16.522Z,99571.25
2023-05-19T10:32:46.907Z,99566.06
2023-05-19T10:35:28.418Z,99557.63
2023-05-19T10:38:24.476Z,99560.19
2023-05-19T10:41:10.262Z,99566.88
2023-05-19T10:43:39.905Z,99558.50
2023-05-19T10:46:07.048Z,99557.91
2023-05-19T10:48:35.200Z,99570.94
2023-05-19T10:51:02.827Z,99553.00
2023-05-19T10:53:33.450Z,99565.13
2023-05-19T10:56:02.352Z,99578.09
2023-05-19T10:58:50.481Z,99570.50
2023-05-19T11:01:19.548Z,99568.03
2023-05-19T11:03:56.029Z,99565.38
2023-05-19T11:06:29.973Z,99558.25
2023-05-19T11:09:10.326Z,99537.13
2023-05-19T11:11:52.107Z,99619.09
2023-05-19T11:14:21.829Z,99569.22
2023-05-19T11:16:50.395Z,99552.84
2023-05-19T11:19:27.598Z,99528.22
2023-05-19T11:21:55.324Z,99576.44
2023-05-19T11:24:46.579Z,99561.25
2023-05-19T11:27:33.984Z,99557.53
2023-05-19T11:30:02.618Z,99551.50
2023-05-19T11:32:31.077Z,99532.84
2023-05-19T11:34:58.362Z,99555.22
2023-05-19T11:37:25.662Z,99537.97
2023-05-19T11:39:53.302Z,99566.72
2023-05-19T11:42:20.790Z,99555.13
2023-05-19T11:44:49.474Z,99584.69
2023-05-19T11:47:17.160Z,99555.81
2023-05-19T11:50:04.688Z,99536.88
2023-05-19T11:52:32.201Z,99573.31
2023-05-19T11:55:02.291Z,99548.47
2023-05-19T11:57:29.483Z,99558.75
2023-05-19T11:59:56.826Z,99565.34
2023-05-19T12:02:25.425Z,99551.53
2023-05-19T12:04:52.878Z,99565.34
2023-05-19T12:07:24.183Z,99583.69
2023-05-19T12:09:52.330Z,99535.31
2023-05-19T12:12:20.875Z,99547.75
2023-05-19T12:14:50.004Z,99563.50
2023-05-19T12:17:21.341Z,99545.28
2023-05-19T12:19:49.262Z,99581.84
2023-05-19T12:22:18.120Z,99522.41
2023-05-19T12:24:47.391Z,99534.53
2023-05-19T12:27:23.627Z,99568.13
2023-05-19T12:29:51.610Z,99546.25
2023-05-19T12:32:18.659Z,99551.28
2023-05-19T12:34:45.723Z,99560.31
2023-05-19T12:37:13.099Z,99533.19
2023-05-19T12:39:42.205Z,99546.13
2023-05-19T12:42:10.475Z,99539.03
2023-05-19T12:44:49.501Z,99558.28
2023-05-19T12:47:17.503Z,99539.00
2023-05-19T12:50:00.760Z,99539.38
2023-05-19T12:52:29.567Z,99551.13
2023-05-19T12:55:00.574Z,99545.69
2023-05-19T12:57:28.729Z,99537.44
2023-05-19T13:00:00.989Z,99543.50
2023-05-19T13:02:28.678Z,99523.28
2023-05-19T13:04:55.778Z,99536.06
2023-05-19T13:07:25.262Z,99557.44
2023-05-19T13:09:54.785Z,99527.94
2023-05-19T13:12:21.894Z,99531.53
2023-05-19T13:14:48.839Z,99550.81
2023-05-19T13:17:15.714Z,99541.81
2023-05-19T13:19:43.010Z,99549.47
2023-05-19T13:22:10.190Z,99542.84
2023-05-19T13:24:37.436Z,99539.94
2023-05-19T13:27:06.216Z,99548.50
2023-05-19T13:29:33.671Z,99449.84
2023-05-19T13:32:01.618Z,99634.94
2023-05-19T13:34:29.022Z,99523.69
2023-05-19T13:36:56.097Z,99547.84
2023-05-19T13:39:25.643Z,99562.34
2023-05-19T13:41:52.848Z,99548.31
2023-05-19T13:44:19.902Z,99550.94
2023-05-19T13:46:48.490Z,99527.59
2023-05-19T13:49:17.196Z,99538.50
2023-05-19T13:51:44.481Z,99541.44
2023-05-19T13:54:11.998Z,99541.19
2023-05-19T13:56:39.754Z,99526.47
2023-05-19T13:59:07.109Z,99543.56
2023-05-19T14:01:34.160Z,99558.69
2023-05-19T14:04:01.486Z,99549.06
2023-05-19T14:06:28.808Z,99536.47
2023-05-19T14:08:55.920Z,99538.00
2023-05-19T14:11:23.210Z,99513.03
2023-05-19T14:13:52.522Z,99543.63
2023-05-19T14:16:20.420Z,99537.13
2023-05-19T14:18:47.986Z,99563.50
2023-05-19T14:21:15.857Z,99546.78
2023-05-19T14:23:43.161Z,99536.94
2023-05-19T14:26:10.438Z,99537.78
2023-05-19T14:28:37.741Z,99534.84
2023-05-19T14:31:04.985Z,99537.88
2023-05-19T14:33:35.232Z,99539.72
2023-05-19T14:36:02.913Z,99515.63
2023-05-19T14:38:32.581Z,99536.31
2023-05-19T14:40:59.732Z,99542.13
2023-05-19T14:43:27.269Z,99513.97
2023-05-19T14:45:55.516Z,99559.38
2023-05-19T14:48:22.868Z,99542.56
2023-05-19T14:50:50.136Z,99540.69
2023-05-19T14:53:17.217Z,99520.31
2023-05-19T14:55:44.358Z,99560.41
2023-05-19T14:58:26.773Z,99557.03
2023-05-19T15:00:57.956Z,99560.06
2023-05-19T15:03:25.403Z,99547.59
2023-05-19T15:05:52.899Z,99565.31
2023-05-19T15:08:20.173Z,99530.66
2023-05-19T15:10:51.476Z,99558.91
2023-05-19T15:13:18.971Z,99531.13
2023-05-19T15:15:46.284Z,99541.13
2023-05-19T15:18:13.779Z,99545.91
2023-05-19T15:20:41.081Z,99558.75
2023-05-19T15:23:08.443Z,99564.13
2023-05-19T15:25:35.773Z,99558.94
2023-05-19T15:28:03.356Z,99561.28
2023-05-19T15:30:30.693Z,99578.69
2023-05-19T15:33:00.391Z,99564.09
2023-05-19T15:35:27.678Z,99589.47
2023-05-19T15:37:54.916Z,99603.25
2023-05-19T15:40:22.257Z,99604.41
2023-05-19T15:42:49.700Z,99590.56
2023-05-19T15:45:17.033Z,99602.56
2023-05-19T15:47:44.321Z,99631.34
2023-05-19T15:50:11.687Z,99619.69
2023-05-19T15:52:39.765Z,99616.94
2023-05-19T15:55:08.389Z,99621.84
2023-05-19T15:57:35.931Z,99633.66
2023-05-19T16:00:03.204Z,99650.34
2023-05-19T16:02:32.834Z,99631.28
2023-05-19T16:05:00.097Z,99657.03
2023-05-19T16:07:27.580Z,99661.31
2023-05-19T16:09:55.640Z,99635.81
2023-05-19T16:12:23.725Z,99653.06
2023-05-19T16:14:51.169Z,99642.78
2023-05-19T16:17:18.434Z,99663.66
2023-05-19T16:19:45.801Z,99671.50
2023-05-19T16:22:13.157Z,99662.44
2023-05-19T16:24:40.407Z,99653.53
2023-05-19T16:27:07.661Z,99663.53
2023-05-19T16:29:34.835Z,99650.34
2023-05-19T16:32:02.203Z,99655.31
2023-05-19T16:34:30.666Z,99655.34
2023-05-19T16:36:58.043Z,99644.44
2023-05-19T16:39:25.322Z,99671.72
2023-05-19T16:41:52.355Z,99661.25
2023-05-19T16:44:19.754Z,99659.41
2023-05-19T16:46:47.188Z,99666.38
2023-05-19T16:49:14.465Z,99669.91
2023-05-19T16:51:42.137Z,99653.09
2023-05-19T16:54:11.363Z,99670.81
2023-05-19T16:56:38.879Z,99669.09
2023-05-19T16:59:08.795Z,99650.25
2023-05-19T17:01:37.429Z,99660.75
2023-05-19T17:04:05.156Z,99662.19
2023-05-19T17:06:32.585Z,99666.66
2023-05-19T17:08:59.973Z,99677.06
2023-05-19T17:11:27.370Z,99681.53
2023-05-19T17:13:55.009Z,99664.38
2023-05-19T17:16:24.285Z,99682.31
2023-05-19T17:18:52.006Z,99696.53
2023-05-19T17:21:19.603Z,99686.53
2023-05-19T17:23:46.865Z,99690.03
2023-05-19T17:26:14.146Z,99673.50
2023-05-19T17:28:41.452Z,99698.56
2023-05-19T17:31:15.606Z,99709.53
2023-05-19T17:33:42.891Z,99709.31
2023-05-19T17:36:10.287Z,99698.41
2023-05-19T17:38:37.752Z,99709.19
2023-05-19T17:41:05.383Z,99710.38
2023-05-19T17:43:32.599Z,99716.63
2023-05-19T17:46:01.206Z,99693.72
2023-05-19T17:48:28.920Z,99701.91
2023-05-19T17:50:56.197Z,99703.22
2023-05-19T17:53:23.986Z,99695.06
2023-05-19T17:56:01.605Z,99687.94
2023-05-19T17:58:29.580Z,99705.47
2023-05-19T18:00:57.188Z,99699.97
2023-05-19T18:03:25.300Z,99716.66
2023-05-19T18:05:54.381Z,99727.84
2023-05-19T18:08:24.016Z,99716.31
2023-05-19T18:10:51.612Z,99717.25
2023-05-19T18:13:19.231Z,99728.56
2023-05-19T18:15:47.465Z,99722.88
2023-05-19T18:18:20.487Z,99711.72
2023-05-19T18:20:48.937Z,99701.16
2023-05-19T18:23:16.277Z,99707.41
2023-05-19T18:25:49.550Z,99716.06
2023-05-19T18:28:16.897Z,99708.03
2023-05-19T18:30:44.161Z,99724.25
2023-05-19T18:33:12.066Z,99711.88
2023-05-19T18:35:40.768Z,99714.00
2023-05-19T18:38:08.394Z,99694.31
2023-05-19T18:40:35.959Z,99715.47
2023-05-19T18:43:03.634Z,99727.84
2023-05-19T18:45:31.132Z,99730.06
2023-05-19T18:47:58.515Z,99733.94
2023-05-19T18:50:26.328Z,99721.44
2023-05-19T18:52:53.652Z,99728.13
2023-05-19T18:55:21.061Z,99716.06
2023-05-19T18:57:48.399Z,99719.06
2023-05-19T19:00:15.804Z,99704.78
2023-05-19T19:02:43.725Z,99684.25
2023-05-19T19:05:13.264Z,99710.75
2023-05-19T19:07:46.611Z,99715.94
2023-05-19T19:10:16.645Z,99719.63
2023-05-19T19:12:47.323Z,99723.44
2023-05-19T19:15:34.440Z,99740.94
2023-05-19T19:18:01.690Z,99721.16
2023-05-19T19:20:28.937Z,99742.09
2023-05-19T19:22:56.212Z,99740.25
2023-05-19T19:25:23.802Z,99757.66
2023-05-19T19:27:54.066Z,99744.50
2023-05-19T19:30:21.464Z,99731.72
2023-05-19T19:32:51.309Z,99738.66
2023-05-19T19:35:22.258Z,99713.81
2023-05-19T19:37:50.047Z,99709.59
2023-05-19T19:40:17.219Z,99732.91
2023-05-19T19:42:44.254Z,99727.13
2023-05-19T19:45:14.744Z,99725.81
2023-05-19T19:47:43.380Z,99723.94
2023-05-19T19:50:11.445Z,99733.22
2023-05-19T19:52:38.936Z,99762.25
2023-05-19T19:55:06.535Z,99731.47
2023-05-19T19:57:33.660Z,99743.22
2023-05-19T20:00:00.987Z,99757.09
2023-05-19T20:02:28.208Z,99737.38
2023-05-19T20:04:55.229Z,99741.94
2023-05-19T20:07:22.236Z,99745.38
2023-05-19T20:09:49.271Z,99753.19
2023-05-19T20:12:16.481Z,99765.34
2023-05-19T20:14:43.513Z,99754.59
2023-05-19T20:17:10.489Z,99773.25
2023-05-19T20:19:37.573Z,99772.72
2023-05-19T20:22:04.870Z,99767.41
2023-05-19T20:24:31.760Z,99766.13
2023-05-19T20:26:58.751Z,99742.88
2023-05-19T20:29:25.674Z,99739.75
2023-05-19T20:31:53.647Z,99755.56
2023-05-19T20:34:21.996Z,99755.03
2023-05-19T20:36:49.023Z,99774.78
2023-05-19T20:39:16.037Z,99740.59
2023-05-19T20:41:43.204Z,99782.69
2023-05-19T20:44:10.064Z,99759.00
2023-05-19T20:46:37.016Z,99771.91
2023-05-19T20:49:03.952Z,99780.75
2023-05-19T20:51:31.096Z,99766.78
2023-05-19T20:53:58.011Z,99775.41
2023-05-19T20:56:24.974Z,99766.25
2023-05-19T20:58:51.880Z,99769.53
2023-05-19T21:01:18.893Z,99760.88
2023-05-19T21:03:45.780Z,99764.03
2023-05-19T21:06:12.772Z,99776.72
2023-05-19T21:08:39.627Z,99758.38
2023-05-19T21:11:06.657Z,99773.66
2023-05-19T21:13:33.875Z,99744.00
2023-05-19T21:16:00.893Z,99746.00
2023-05-19T21:18:27.821Z,99755.09
2023-05-19T21:20:54.820Z,99755.06
2023-05-19T21:23:22.954Z,99751.34
2023-05-19T21:25:50.639Z,99758.06
2023-05-19T21:28:17.554Z,99765.31
2023-05-19T21:30:48.440Z,99773.00
2023-05-19T21:33:15.419Z,99763.28
2023-05-19T21:35:42.412Z,99756.56
2023-05-19T21:38:22.632Z,99762.00
2023-05-19T21:40:50.684Z,99744.19
2023-05-19T21:43:17.632Z,99770.47
2023-05-19T21:45:45.298Z,99742.00
2023-05-19T21:48:12.306Z,99775.38
2023-05-19T21:50:39.334Z,99734.31
2023-05-19T21:53:06.222Z,99751.47
2023-05-19T21:55:33.366Z,99762.94
2023-05-19T21:58:02.402Z,99749.44
2023-05-19T22:00:29.828Z,99762.47
2023-05-19T22:02:56.887Z,99756.28
2023-05-19T22:05:24.056Z,99761.75
2023-05-19T22:07:51.117Z,99741.63
2023-05-19T22:10:18.213Z,99759.91
2023-05-19T22:12:45.182Z,99756.13
2023-05-19T22:15:12.240Z,99764.88
2023-05-19T22:17:39.467Z,99744.38
2023-05-19T22:20:07.162Z,99766.75
2023-05-19T22:22:34.622Z,99759.69
2023-05-19T22:25:03.325Z,99777.72
2023-05-19T22:27:30.273Z,99754.84
2023-05-19T22:29:57.251Z,99758.25
2023-05-19T22:32:24.403Z,99752.09
2023-05-19T22:34:51.629Z,99753.13
2023-05-19T22:37:18.576Z,99774.41
2023-05-19T22:39:45.643Z,99747.31
2023-05-19T22:42:12.576Z,99758.47
2023-05-19T22:44:39.578Z,99774.50
2023-05-19T22:47:06.606Z,99749.38
2023-05-19T22:49:33.619Z,99771.16
2023-05-19T22:52:00.493Z,99780.16
2023-05-19T22:54:27.499Z,99760.09
2023-05-19T22:56:54.510Z,99770.09
2023-05-19T22:59:21.472Z,99779.75
2023-05-19T23:01:48.410Z,99750.31
2023-05-19T23:04:15.575Z,99744.91
2023-05-19T23:06:42.516Z,99772.59
2023-05-19T23:09:09.496Z,99738.06
2023-05-19T23:11:36.574Z,99763.69
2023-05-19T23:14:03.672Z,99777.25
2023-05-19T23:16:30.624Z,99786.25
2023-05-19T23:18:57.730Z,99780.44
2023-05-19T23:21:24.739Z,99739.09
2023-05-19T23:23:51.865Z,99773.03
2023-05-19T23:26:18.774Z,99775.28
2023-05-19T23:28:45.708Z,99771.81
2023-05-19T23:31:12.631Z,99780.13
2023-05-19T23:33:39.655Z,99777.69
2023-05-19T23:36:08.164Z,99777.72
2023-05-19T23:38:36.517Z,99781.13
2023-05-19T23:41:04.117Z,99747.72
2023-05-19T23:43:31.457Z,99781.72
2023-05-19T23:45:59.021Z,99763.84
2023-05-19T23:48:26.921Z,99776.16
2023-05-19T23:50:53.808Z,99776.50
2023-05-19T23:53:20.857Z,99776.34
2023-05-19T23:55:47.825Z,99755.06
2023-05-19T23:58:14.736Z,99769.97
